createdAt,value
2022-10-18T00:00:07.696Z,18.29
2022-10-18T00:02:38.129Z,18.28
2022-10-18T00:05:05.743Z,18.28
2022-10-18T00:07:33.038Z,18.29
2022-10-18T00:10:00.287Z,18.28
2022-10-18T00:12:27.371Z,18.28
2022-10-18T00:14:54.310Z,18.27
2022-10-18T00:17:21.326Z,18.25
2022-10-18T00:19:50.439Z,18.23
2022-10-18T00:22:17.517Z,18.22
2022-10-18T00:24:44.792Z,18.20
2022-10-18T00:27:12.018Z,18.19
2022-10-18T00:29:39.013Z,18.20
2022-10-18T00:32:06.263Z,18.19
2022-10-18T00:34:33.170Z,18.19
2022-10-18T00:37:00.209Z,18.18
2022-10-18T00:39:27.110Z,18.17
2022-10-18T00:41:54.179Z,18.16
2022-10-18T00:44:21.005Z,18.16
2022-10-18T00:46:49.799Z,18.16
2022-10-18T00:49:25.358Z,18.15
2022-10-18T00:51:59.533Z,18.14
2022-10-18T00:54:28.365Z,18.14
2022-10-18T00:56:55.787Z,18.12
2022-10-18T00:59:23.609Z,18.11
2022-10-18T01:01:50.775Z,18.11
2022-10-18T01:04:19.804Z,18.08
2022-10-18T01:07:01.553Z,18.07
2022-10-18T01:09:45.856Z,18.05
2022-10-18T01:12:44.917Z,18.03
2022-10-18T01:15:30.331Z,18.03
2022-10-18T01:18:19.011Z,18.05
2022-10-18T01:21:13.663Z,18.05
2022-10-18T01:24:11.577Z,18.02
2022-10-18T01:26:48.364Z,18.00
2022-10-18T01:29:37.233Z,17.97
2022-10-18T01:32:10.728Z,17.95
2022-10-18T01:34:40.167Z,17.94
2022-10-18T01:37:11.504Z,17.94
2022-10-18T01:39:42.843Z,17.94
2022-10-18T01:42:13.887Z,17.93
2022-10-18T01:44:44.278Z,17.93
2022-10-18T01:47:14.265Z,17.94
2022-10-18T01:49:41.387Z,17.95
2022-10-18T01:52:13.258Z,17.94
2022-10-18T01:54:44.554Z,17.94
2022-10-18T01:57:25.877Z,17.93
2022-10-18T02:00:31.805Z,17.92
2022-10-18T02:03:15.642Z,17.91
2022-10-18T02:05:54.541Z,17.90
2022-10-18T02:08:37.498Z,17.90
2022-10-18T02:11:12.572Z,17.89
2022-10-18T02:13:46.630Z,17.89
2022-10-18T02:16:43.401Z,17.86
2022-10-18T02:19:21.009Z,17.85
2022-10-18T02:21:50.208Z,17.83
2022-10-18T02:24:19.826Z,17.80
2022-10-18T02:26:47.652Z,17.80
2022-10-18T02:29:14.860Z,17.77
2022-10-18T02:31:48.646Z,17.74
2022-10-18T02:34:29.839Z,17.70
2022-10-18T02:37:01.597Z,17.84
2022-10-18T02:39:42.665Z,17.92
2022-10-18T02:42:11.218Z,17.93
2022-10-18T02:44:39.425Z,17.92
2022-10-18T02:47:08.393Z,17.95
2022-10-18T02:49:35.280Z,18.00
2022-10-18T02:52:02.337Z,17.98
2022-10-18T02:54:29.221Z,17.95
2022-10-18T02:56:56.212Z,17.89
2022-10-18T02:59:23.193Z,17.84
2022-10-18T03:01:50.248Z,17.80
2022-10-18T03:04:17.380Z,17.80
2022-10-18T03:06:44.330Z,17.79
2022-10-18T03:09:11.642Z,17.78
2022-10-18T03:11:38.574Z,17.77
2022-10-18T03:14:05.580Z,17.77
2022-10-18T03:16:34.073Z,17.76
2022-10-18T03:19:01.158Z,17.77
2022-10-18T03:21:28.070Z,17.75
2022-10-18T03:23:55.155Z,17.72
2022-10-18T03:26:22.262Z,17.69
2022-10-18T03:28:49.270Z,17.65
2022-10-18T03:31:16.270Z,17.61
2022-10-18T03:33:43.326Z,17.54
2022-10-18T03:36:10.273Z,17.51
2022-10-18T03:38:37.223Z,17.47
2022-10-18T03:41:04.365Z,17.46
2022-10-18T03:43:31.412Z,17.49
2022-10-18T03:45:58.572Z,17.51
2022-10-18T03:48:25.526Z,17.50
2022-10-18T03:50:52.578Z,17.47
2022-10-18T03:53:19.483Z,17.47
2022-10-18T03:55:52.654Z,17.45
2022-10-18T03:58:19.713Z,17.45
2022-10-18T04:00:51.066Z,17.45
2022-10-18T04:03:19.434Z,17.46
2022-10-18T04:05:47.645Z,17.45
2022-10-18T04:08:15.550Z,17.41
2022-10-18T04:10:43.224Z,17.41
2022-10-18T04:13:10.406Z,17.38
2022-10-18T04:15:37.606Z,17.35
2022-10-18T04:18:04.582Z,17.34
2022-10-18T04:20:31.606Z,17.33
2022-10-18T04:22:58.628Z,17.34
2022-10-18T04:25:25.800Z,17.36
2022-10-18T04:27:52.716Z,17.36
2022-10-18T04:30:19.789Z,17.37
2022-10-18T04:32:46.717Z,17.37
2022-10-18T04:35:13.824Z,17.40
2022-10-18T04:37:40.760Z,17.43
2022-10-18T04:40:08.522Z,17.40
2022-10-18T04:42:35.412Z,17.39
2022-10-18T04:45:02.337Z,17.34
2022-10-18T04:47:29.567Z,17.32
2022-10-18T04:49:56.657Z,17.30
2022-10-18T04:52:23.694Z,17.29
2022-10-18T04:54:50.578Z,17.28
2022-10-18T04:57:17.739Z,17.28
2022-10-18T04:59:44.725Z,17.30
2022-10-18T05:02:11.706Z,17.28
2022-10-18T05:04:38.730Z,17.30
2022-10-18T05:07:06.748Z,17.32
2022-10-18T05:09:34.221Z,17.35
2022-10-18T05:12:01.121Z,17.37
2022-10-18T05:14:28.186Z,17.40
2022-10-18T05:16:55.136Z,17.43
2022-10-18T05:19:22.103Z,17.54
2022-10-18T05:21:49.159Z,17.71
2022-10-18T05:24:16.039Z,17.97
2022-10-18T05:26:43.061Z,18.28
2022-10-18T05:29:10.078Z,18.64
2022-10-18T05:31:37.212Z,19.01
2022-10-18T05:34:04.262Z,19.39
2022-10-18T05:36:31.478Z,19.83
2022-10-18T05:39:01.003Z,20.25
2022-10-18T05:41:31.574Z,20.72
2022-10-18T05:43:59.094Z,21.19
2022-10-18T05:46:26.123Z,21.75
2022-10-18T05:48:53.145Z,22.30
2022-10-18T05:51:20.147Z,22.79
2022-10-18T05:53:47.298Z,23.31
2022-10-18T05:56:14.644Z,23.58
2022-10-18T05:58:43.094Z,23.86
2022-10-18T06:01:10.739Z,24.11
2022-10-18T06:03:37.793Z,24.35
2022-10-18T06:06:07.468Z,24.80
2022-10-18T06:08:35.876Z,25.14
2022-10-18T06:11:09.797Z,25.56
2022-10-18T06:13:43.848Z,25.88
2022-10-18T06:16:12.352Z,26.07
2022-10-18T06:18:39.904Z,25.85
2022-10-18T06:21:07.514Z,25.30
2022-10-18T06:23:35.526Z,24.90
2022-10-18T06:26:05.780Z,25.10
2022-10-18T06:28:35.363Z,25.64
2022-10-18T06:31:02.660Z,26.20
2022-10-18T06:33:31.574Z,26.64
2022-10-18T06:36:01.306Z,26.89
2022-10-18T06:38:28.859Z,27.51
2022-10-18T06:40:57.297Z,27.80
2022-10-18T06:43:24.697Z,28.00
2022-10-18T06:45:52.363Z,27.97
2022-10-18T06:50:57.443Z,26.85
2022-10-18T06:53:30.912Z,26.70
2022-10-18T06:56:05.498Z,26.39
2022-10-18T06:58:33.544Z,26.05
2022-10-18T07:01:09.189Z,26.16
2022-10-18T07:03:36.507Z,25.79
2022-10-18T07:06:09.225Z,25.19
2022-10-18T07:08:36.789Z,25.07
2022-10-18T07:11:04.031Z,24.88
2022-10-18T07:13:33.336Z,24.48
2022-10-18T07:16:01.442Z,24.67
2022-10-18T07:18:28.679Z,24.39
2022-10-18T07:20:55.781Z,24.19
2022-10-18T07:23:24.000Z,23.99
2022-10-18T07:25:51.234Z,23.58
2022-10-18T07:28:18.245Z,23.16
2022-10-18T07:30:45.329Z,22.89
2022-10-18T07:33:12.450Z,22.82
2022-10-18T07:35:39.441Z,22.36
2022-10-18T07:38:06.498Z,22.50
2022-10-18T07:40:33.553Z,22.80
2022-10-18T07:43:04.498Z,22.82
2022-10-18T07:45:32.476Z,22.68
2022-10-18T07:47:59.530Z,22.73
2022-10-18T07:50:26.551Z,22.77
2022-10-18T07:52:53.523Z,22.73
2022-10-18T07:55:20.775Z,22.75
2022-10-18T07:57:47.755Z,22.80
2022-10-18T08:00:15.112Z,22.99
2022-10-18T08:02:42.043Z,22.90
2022-10-18T08:05:09.580Z,22.87
2022-10-18T08:07:36.587Z,22.96
2022-10-18T08:10:04.080Z,22.91
2022-10-18T08:12:31.168Z,22.78
2022-10-18T08:14:58.133Z,22.80
2022-10-18T08:17:25.190Z,22.66
2022-10-18T08:20:04.726Z,22.87
2022-10-18T08:22:39.197Z,22.64
2022-10-18T08:25:06.605Z,22.89
2022-10-18T08:27:33.965Z,23.07
2022-10-18T08:30:02.558Z,22.67
2022-10-18T08:32:29.701Z,22.77
2022-10-18T08:34:57.036Z,22.86
2022-10-18T08:37:23.929Z,22.94
2022-10-18T08:39:50.939Z,22.99
2022-10-18T08:42:41.698Z,22.96
2022-10-18T08:45:30.168Z,22.91
2022-10-18T08:47:58.308Z,22.82
2022-10-18T08:50:35.623Z,22.86
2022-10-18T08:53:18.346Z,23.00
2022-10-18T08:55:54.953Z,22.88
2022-10-18T08:58:23.678Z,22.78
2022-10-18T09:00:53.235Z,22.76
2022-10-18T09:03:43.701Z,22.73
2022-10-18T09:06:22.736Z,22.63
2022-10-18T09:09:08.891Z,22.57
2022-10-18T09:11:47.131Z,22.59
2022-10-18T09:14:42.081Z,22.55
2022-10-18T09:17:15.859Z,22.50
2022-10-18T09:20:22.214Z,22.52
2022-10-18T09:23:05.582Z,22.55
2022-10-18T09:25:44.709Z,22.67
2022-10-18T09:28:26.653Z,22.67
2022-10-18T09:31:16.940Z,22.73
2022-10-18T09:34:04.047Z,22.73
2022-10-18T09:36:38.984Z,22.63
2022-10-18T09:39:20.052Z,22.78
2022-10-18T09:41:53.406Z,22.78
2022-10-18T09:44:34.774Z,22.81
2022-10-18T09:47:17.214Z,22.71
2022-10-18T09:50:25.591Z,22.78
2022-10-18T09:53:01.624Z,22.93
2022-10-18T09:55:35.908Z,23.08
2022-10-18T09:58:07.000Z,22.97
2022-10-18T10:00:48.369Z,22.83
2022-10-18T10:03:16.021Z,22.80
2022-10-18T10:05:45.054Z,22.81
2022-10-18T10:08:12.653Z,22.74
2022-10-18T10:10:41.821Z,22.71
2022-10-18T10:13:16.459Z,22.88
2022-10-18T10:15:53.462Z,22.82
2022-10-18T10:18:53.307Z,22.69
2022-10-18T10:21:21.980Z,22.57
2022-10-18T10:23:55.896Z,22.58
2022-10-18T10:26:31.312Z,22.64
2022-10-18T10:28:58.394Z,22.61
2022-10-18T10:31:25.339Z,22.63
2022-10-18T10:34:15.210Z,22.82
2022-10-18T10:36:53.157Z,22.94
2022-10-18T10:39:22.377Z,22.75
2022-10-18T10:41:52.658Z,22.85
2022-10-18T10:44:23.184Z,22.90
2022-10-18T10:46:52.016Z,22.92
2022-10-18T10:49:41.161Z,22.84
2022-10-18T10:52:33.952Z,22.84
2022-10-18T10:55:30.427Z,23.03
2022-10-18T10:57:52.747Z,23.21
2022-10-18T11:00:38.420Z,23.16
2022-10-18T11:03:39.342Z,23.09
2022-10-18T11:06:46.313Z,23.09
2022-10-18T11:09:45.750Z,23.17
2022-10-18T11:12:22.633Z,23.41
2022-10-18T11:14:59.309Z,23.40
2022-10-18T11:17:58.428Z,23.39
2022-10-18T11:20:40.887Z,23.52
2022-10-18T11:23:13.770Z,23.57
2022-10-18T11:25:59.449Z,23.52
2022-10-18T11:28:37.193Z,23.46
2022-10-18T11:31:04.175Z,23.47
2022-10-18T11:34:08.104Z,23.47
2022-10-18T11:36:54.635Z,23.38
2022-10-18T11:39:38.257Z,23.28
2022-10-18T11:42:17.786Z,23.38
2022-10-18T11:45:10.993Z,23.47
2022-10-18T11:47:46.691Z,23.45
2022-10-18T11:50:19.816Z,23.43
2022-10-18T11:53:05.816Z,23.40
2022-10-18T11:56:00.476Z,23.38
2022-10-18T11:58:39.074Z,23.26
2022-10-18T12:01:06.018Z,23.10
2022-10-18T12:03:59.498Z,23.00
2022-10-18T12:06:28.601Z,22.66
2022-10-18T12:09:05.110Z,22.42
2022-10-18T12:11:41.843Z,22.33
2022-10-18T12:14:28.418Z,22.53
2022-10-18T12:17:27.920Z,22.52
2022-10-18T12:19:48.040Z,22.56
2022-10-18T12:22:33.318Z,22.51
2022-10-18T12:25:02.122Z,22.53
2022-10-18T12:27:40.916Z,22.79
2022-10-18T12:30:20.625Z,22.93
2022-10-18T12:33:03.542Z,22.91
2022-10-18T12:36:05.114Z,22.90
2022-10-18T12:38:36.014Z,22.99
2022-10-18T12:41:04.600Z,22.92
2022-10-18T12:43:36.989Z,22.77
2022-10-18T12:46:12.238Z,22.75
2022-10-18T12:48:45.864Z,22.85
2022-10-18T12:51:18.312Z,23.04
2022-10-18T12:54:03.092Z,23.06
2022-10-18T12:56:30.187Z,23.08
2022-10-18T12:59:15.466Z,23.01
2022-10-18T13:01:51.655Z,23.09
2022-10-18T13:04:28.002Z,23.00
2022-10-18T13:06:58.068Z,22.97
2022-10-18T13:09:30.380Z,22.94
2022-10-18T13:12:20.727Z,22.91
2022-10-18T13:15:13.801Z,23.00
2022-10-18T13:18:02.013Z,22.97
2022-10-18T13:20:44.597Z,22.99
2022-10-18T13:23:31.685Z,23.01
2022-10-18T13:26:06.638Z,22.92
2022-10-18T13:28:52.700Z,22.89
2022-10-18T13:31:35.069Z,23.04
2022-10-18T13:34:30.927Z,23.10
2022-10-18T13:37:06.600Z,23.07
2022-10-18T13:39:34.126Z,22.98
2022-10-18T13:42:01.059Z,22.96
2022-10-18T13:44:32.044Z,22.99
2022-10-18T13:46:58.986Z,22.97
2022-10-18T13:49:55.916Z,22.90
2022-10-18T13:52:28.259Z,22.93
2022-10-18T13:55:37.232Z,23.01
2022-10-18T13:58:22.665Z,23.04
2022-10-18T14:01:28.450Z,23.02
2022-10-18T14:04:20.332Z,23.04
2022-10-18T14:06:48.265Z,23.03
2022-10-18T14:09:45.308Z,22.91
2022-10-18T14:12:29.287Z,22.73
2022-10-18T14:15:15.091Z,22.70
2022-10-18T14:17:47.236Z,22.67
2022-10-18T14:20:29.539Z,22.66
2022-10-18T14:23:24.941Z,22.66
2022-10-18T14:26:05.881Z,22.64
2022-10-18T14:28:55.031Z,22.52
2022-10-18T14:31:20.373Z,22.48
2022-10-18T14:33:57.302Z,22.44
2022-10-18T14:36:29.576Z,22.56
2022-10-18T14:38:56.548Z,22.59
2022-10-18T14:41:25.244Z,22.61
2022-10-18T14:44:09.583Z,22.57
2022-10-18T14:46:42.684Z,22.56
2022-10-18T14:49:14.734Z,22.50
2022-10-18T14:51:44.947Z,22.41
2022-10-18T14:54:17.767Z,22.35
2022-10-18T14:56:45.637Z,22.29
2022-10-18T14:59:19.430Z,22.30
2022-10-18T15:01:55.510Z,22.24
2022-10-18T15:04:27.773Z,22.24
2022-10-18T15:06:56.179Z,22.24
2022-10-18T15:09:24.301Z,22.21
2022-10-18T15:11:52.023Z,22.19
2022-10-18T15:14:20.240Z,22.14
2022-10-18T15:16:50.818Z,22.07
2022-10-18T15:19:17.865Z,22.05
2022-10-18T15:25:07.341Z,22.00
2022-10-18T15:27:38.010Z,21.96
2022-10-18T15:30:19.891Z,21.83
2022-10-18T15:32:51.172Z,21.85
2022-10-18T15:35:26.059Z,21.86
2022-10-18T15:37:55.922Z,21.85
2022-10-18T15:40:22.777Z,21.88
2022-10-18T15:42:51.442Z,21.87
2022-10-18T15:45:31.886Z,21.85
2022-10-18T15:48:27.314Z,21.80
2022-10-18T15:51:02.080Z,21.74
2022-10-18T15:53:35.853Z,21.67
2022-10-18T15:56:28.291Z,21.63
2022-10-18T15:58:57.211Z,21.63
2022-10-18T16:01:32.627Z,21.61
2022-10-18T16:04:01.184Z,21.56
2022-10-18T16:06:28.256Z,21.50
2022-10-18T16:08:55.351Z,21.50
2022-10-18T16:11:25.175Z,21.47
2022-10-18T16:13:56.388Z,21.47
2022-10-18T16:16:28.985Z,21.39
2022-10-18T16:18:56.812Z,21.40
2022-10-18T16:21:43.885Z,21.40
2022-10-18T16:24:11.687Z,21.36
2022-10-18T16:26:38.807Z,21.34
2022-10-18T16:29:06.630Z,21.30
2022-10-18T16:31:34.661Z,21.27
2022-10-18T16:34:02.358Z,21.25
2022-10-18T16:36:32.034Z,21.24
2022-10-18T16:39:02.474Z,21.27
2022-10-18T16:41:29.442Z,21.26
2022-10-18T16:43:56.428Z,21.21
2022-10-18T16:46:27.732Z,21.17
2022-10-18T16:48:55.066Z,21.13
2022-10-18T16:51:22.681Z,21.10
2022-10-18T16:53:49.845Z,21.13
2022-10-18T16:56:34.812Z,21.13
2022-10-18T16:59:02.424Z,21.10
2022-10-18T17:01:29.611Z,21.04
2022-10-18T17:03:56.669Z,21.00
2022-10-18T17:06:29.699Z,20.97
2022-10-18T17:08:57.560Z,20.96
2022-10-18T17:11:27.117Z,20.95
2022-10-18T17:13:54.642Z,20.98
2022-10-18T17:16:25.264Z,21.02
2022-10-18T17:18:52.758Z,21.00
2022-10-18T17:21:19.845Z,20.98
2022-10-18T17:23:47.037Z,20.95
2022-10-18T17:26:28.399Z,20.89
2022-10-18T17:29:03.578Z,20.84
2022-10-18T17:31:32.186Z,20.81
2022-10-18T17:34:01.876Z,20.78
2022-10-18T17:36:31.335Z,20.75
2022-10-18T17:38:58.799Z,20.75
2022-10-18T17:41:26.241Z,20.75
2022-10-18T17:43:53.233Z,20.73
2022-10-18T17:46:20.445Z,20.71
2022-10-18T17:48:47.757Z,20.68
2022-10-18T17:51:17.287Z,20.67
2022-10-18T17:53:45.101Z,20.64
2022-10-18T17:56:12.743Z,20.63
2022-10-18T17:58:40.111Z,20.59
2022-10-18T18:01:21.761Z,20.57
2022-10-18T18:03:48.917Z,20.56
2022-10-18T18:06:18.806Z,20.54
2022-10-18T18:08:46.566Z,20.53
2022-10-18T18:11:14.177Z,20.50
2022-10-18T18:13:41.310Z,20.50
2022-10-18T18:16:19.355Z,20.48
2022-10-18T18:18:48.664Z,20.46
2022-10-18T18:21:16.174Z,20.45
2022-10-18T18:23:43.243Z,20.43
2022-10-18T18:26:10.269Z,20.41
2022-10-18T18:28:37.880Z,20.40
2022-10-18T18:31:07.166Z,20.41
2022-10-18T18:33:35.198Z,20.40
2022-10-18T18:36:04.976Z,20.42
2022-10-18T18:38:32.745Z,20.42
2022-10-18T18:41:04.979Z,20.41
2022-10-18T18:43:31.962Z,20.41
2022-10-18T18:45:58.917Z,20.41
2022-10-18T18:48:27.847Z,20.39
2022-10-18T18:50:55.262Z,20.38
2022-10-18T18:53:25.985Z,20.37
2022-10-18T18:56:04.920Z,20.36
2022-10-18T18:58:32.995Z,20.36
2022-10-18T19:01:05.007Z,20.36
2022-10-18T19:03:32.093Z,20.34
2022-10-18T19:06:07.286Z,20.32
2022-10-18T19:08:40.008Z,20.30
2022-10-18T19:11:09.406Z,20.27
2022-10-18T19:13:37.065Z,20.26
2022-10-18T19:16:20.508Z,20.23
2022-10-18T19:19:11.925Z,20.22
2022-10-18T19:22:00.560Z,20.22
2022-10-18T19:24:30.417Z,20.20
2022-10-18T19:27:00.558Z,20.18
2022-10-18T19:29:35.809Z,20.16
2022-10-18T19:32:05.892Z,20.14
2022-10-18T19:34:36.423Z,20.13
2022-10-18T19:37:04.039Z,20.10
2022-10-18T19:39:33.086Z,20.09
2022-10-18T19:42:04.450Z,20.08
2022-10-18T19:44:33.981Z,20.07
2022-10-18T19:47:01.052Z,20.05
2022-10-18T19:49:28.865Z,20.03
2022-10-18T19:51:56.637Z,20.02
2022-10-18T19:54:24.644Z,20.00
2022-10-18T19:56:51.749Z,19.99
2022-10-18T19:59:19.674Z,19.97
2022-10-18T20:01:46.964Z,19.95
2022-10-18T20:04:15.274Z,19.93
2022-10-18T20:06:42.981Z,19.91
2022-10-18T20:09:14.640Z,19.88
2022-10-18T20:11:44.988Z,19.83
2022-10-18T20:14:11.870Z,19.82
2022-10-18T20:16:38.958Z,19.81
2022-10-18T20:19:07.661Z,19.81
2022-10-18T20:21:36.192Z,19.79
2022-10-18T20:24:05.678Z,19.77
2022-10-18T20:26:34.651Z,19.75
2022-10-18T20:29:02.149Z,19.73
2022-10-18T20:31:31.526Z,19.72
2022-10-18T20:34:02.384Z,19.70
2022-10-18T20:36:31.614Z,19.71
2022-10-18T20:38:59.463Z,19.72
2022-10-18T20:41:30.135Z,19.71
2022-10-18T20:43:58.469Z,19.71
2022-10-18T20:46:26.969Z,19.68
2022-10-18T20:48:54.816Z,19.65
2022-10-18T20:51:23.135Z,19.64
2022-10-18T20:53:50.670Z,19.63
2022-10-18T20:56:22.692Z,19.62
2022-10-18T20:58:52.339Z,19.59
2022-10-18T21:01:31.129Z,19.56
2022-10-18T21:04:01.549Z,19.54
2022-10-18T21:06:34.700Z,19.51
2022-10-18T21:09:09.017Z,19.50
2022-10-18T21:11:40.490Z,19.48
2022-10-18T21:14:11.023Z,19.48
2022-10-18T21:16:38.304Z,19.48
2022-10-18T21:19:10.898Z,19.48
2022-10-18T21:21:38.167Z,19.47
2022-10-18T21:24:07.774Z,19.47
2022-10-18T21:26:35.912Z,19.46
2022-10-18T21:29:03.805Z,19.47
2022-10-18T21:31:37.139Z,19.47
2022-10-18T21:34:07.181Z,19.46
2022-10-18T21:36:36.926Z,19.44
2022-10-18T21:39:06.278Z,19.46
2022-10-18T21:41:34.111Z,19.43
2022-10-18T21:44:03.527Z,19.41
2022-10-18T21:46:32.731Z,19.39
2022-10-18T21:48:59.827Z,19.39
2022-10-18T21:51:28.085Z,19.36
2022-10-18T21:53:57.002Z,19.34
2022-10-18T21:56:26.837Z,19.32
2022-10-18T21:58:54.455Z,19.32
2022-10-18T22:01:25.576Z,19.30
2022-10-18T22:03:54.469Z,19.28
2022-10-18T22:06:22.331Z,19.26
2022-10-18T22:08:50.814Z,19.25
2022-10-18T22:11:20.218Z,19.23
2022-10-18T22:13:47.506Z,19.18
2022-10-18T22:16:16.907Z,19.18
2022-10-18T22:18:45.950Z,19.18
2022-10-18T22:21:14.782Z,19.16
2022-10-18T22:23:45.206Z,19.13
2022-10-18T22:26:18.510Z,19.11
2022-10-18T22:28:48.574Z,19.11
2022-10-18T22:31:24.385Z,19.08
2022-10-18T22:33:56.590Z,19.05
2022-10-18T22:36:25.945Z,19.02
2022-10-18T22:38:53.774Z,19.00
2022-10-18T22:41:20.901Z,18.95
2022-10-18T22:43:49.737Z,18.94
2022-10-18T22:46:17.259Z,18.93
2022-10-18T22:48:44.576Z,18.92
2022-10-18T22:51:12.490Z,18.91
2022-10-18T22:53:40.187Z,18.88
2022-10-18T22:56:08.642Z,18.86
2022-10-18T22:58:35.683Z,18.86
2022-10-18T23:01:05.689Z,18.85
2022-10-18T23:03:32.838Z,18.85
2022-10-18T23:06:00.612Z,18.85
2022-10-18T23:08:28.436Z,18.83
2022-10-18T23:10:58.865Z,18.80
2022-10-18T23:13:27.537Z,18.79
2022-10-18T23:16:04.377Z,18.79
2022-10-18T23:18:33.169Z,18.82
2022-10-18T23:21:04.833Z,18.81
2022-10-18T23:23:37.089Z,18.79
2022-10-18T23:26:13.045Z,18.75
2022-10-18T23:28:45.060Z,18.72
2022-10-18T23:31:12.199Z,18.71
2022-10-18T23:33:40.269Z,18.70
2022-10-18T23:36:08.759Z,18.66
2022-10-18T23:38:36.797Z,18.63
2022-10-18T23:41:05.190Z,18.60
2022-10-18T23:43:32.342Z,18.57
2022-10-18T23:45:59.287Z,18.56
2022-10-18T23:48:26.630Z,18.57
2022-10-18T23:50:53.613Z,18.54
2022-10-18T23:53:21.055Z,18.54
2022-10-18T23:55:59.419Z,18.53
2022-10-18T23:58:28.162Z,18.52
